sensor_id;sensor_type;location;lat;lon;timestamp;P1;durP1;ratioP1;P2;durP2;ratioP2
16928;SDS011;8581;47.334;11.190;2022-10-31T00:00:15;8.50;;;2.50;;
16928;SDS011;8581;47.334;11.190;2022-10-31T00:02:47;6.23;;;2.60;;
16928;SDS011;8581;47.334;11.190;2022-10-31T00:05:18;9.90;;;2.60;;
16928;SDS011;8581;47.334;11.190;2022-10-31T00:07:51;4.50;;;2.23;;
16928;SDS011;8581;47.334;11.190;2022-10-31T00:10:22;8.50;;;2.70;;
16928;SDS011;8581;47.334;11.190;2022-10-31T00:12:54;6.67;;;2.70;;
16928;SDS011;8581;47.334;11.190;2022-10-31T00:15:26;4.60;;;2.40;;
16928;SDS011;8581;47.334;11.190;2022-10-31T00:17:58;5.30;;;2.13;;
16928;SDS011;8581;47.334;11.190;2022-10-31T00:20:29;5.67;;;2.30;;
16928;SDS011;8581;47.334;11.190;2022-10-31T00:23:01;5.00;;;2.30;;
16928;SDS011;8581;47.334;11.190;2022-10-31T00:25:33;5.10;;;2.47;;
16928;SDS011;8581;47.334;11.190;2022-10-31T00:28:05;5.17;;;2.03;;
16928;SDS011;8581;47.334;11.190;2022-10-31T00:30:35;7.40;;;2.20;;
16928;SDS011;8581;47.334;11.190;2022-10-31T00:33:07;5.13;;;2.17;;
16928;SDS011;8581;47.334;11.190;2022-10-31T00:35:39;6.70;;;2.43;;
16928;SDS011;8581;47.334;11.190;2022-10-31T00:38:10;7.60;;;2.57;;
16928;SDS011;8581;47.334;11.190;2022-10-31T00:40:42;5.93;;;2.30;;
16928;SDS011;8581;47.334;11.190;2022-10-31T00:43:13;5.63;;;2.40;;
16928;SDS011;8581;47.334;11.190;2022-10-31T00:45:45;8.37;;;2.60;;
16928;SDS011;8581;47.334;11.190;2022-10-31T00:48:16;5.53;;;2.10;;
16928;SDS011;8581;47.334;11.190;2022-10-31T00:50:48;6.40;;;2.27;;
16928;SDS011;8581;47.334;11.190;2022-10-31T00:53:20;4.53;;;1.87;;
16928;SDS011;8581;47.334;11.190;2022-10-31T00:55:51;8.40;;;2.20;;
16928;SDS011;8581;47.334;11.190;2022-10-31T00:58:23;5.47;;;2.20;;
16928;SDS011;8581;47.334;11.190;2022-10-31T01:00:54;5.70;;;2.20;;
16928;SDS011;8581;47.334;11.190;2022-10-31T01:03:27;4.70;;;2.37;;
16928;SDS011;8581;47.334;11.190;2022-10-31T01:05:59;7.03;;;2.57;;
16928;SDS011;8581;47.334;11.190;2022-10-31T01:08:30;4.67;;;2.50;;
16928;SDS011;8581;47.334;11.190;2022-10-31T01:11:03;6.43;;;2.67;;
16928;SDS011;8581;47.334;11.190;2022-10-31T01:13:50;5.33;;;2.13;;
16928;SDS011;8581;47.334;11.190;2022-10-31T01:16:22;5.43;;;2.13;;
16928;SDS011;8581;47.334;11.190;2022-10-31T01:18:52;7.00;;;2.50;;
16928;SDS011;8581;47.334;11.190;2022-10-31T01:21:25;5.53;;;2.03;;
16928;SDS011;8581;47.334;11.190;2022-10-31T01:23:55;4.07;;;2.43;;
16928;SDS011;8581;47.334;11.190;2022-10-31T01:26:29;4.27;;;2.33;;
16928;SDS011;8581;47.334;11.190;2022-10-31T01:29:00;7.80;;;2.33;;
16928;SDS011;8581;47.334;11.190;2022-10-31T01:31:32;5.40;;;1.77;;
16928;SDS011;8581;47.334;11.190;2022-10-31T01:34:04;3.83;;;2.00;;
16928;SDS011;8581;47.334;11.190;2022-10-31T01:36:36;4.07;;;2.23;;
16928;SDS011;8581;47.334;11.190;2022-10-31T01:39:08;4.80;;;1.87;;
16928;SDS011;8581;47.334;11.190;2022-10-31T01:41:41;7.47;;;2.50;;
16928;SDS011;8581;47.334;11.190;2022-10-31T01:47:14;5.77;;;2.03;;
16928;SDS011;8581;47.334;11.190;2022-10-31T01:49:46;5.77;;;2.00;;
16928;SDS011;8581;47.334;11.190;2022-10-31T01:52:21;5.23;;;2.23;;
16928;SDS011;8581;47.334;11.190;2022-10-31T01:54:58;4.87;;;2.10;;
16928;SDS011;8581;47.334;11.190;2022-10-31T01:57:28;6.50;;;2.30;;
16928;SDS011;8581;47.334;11.190;2022-10-31T02:00:01;6.60;;;2.50;;
16928;SDS011;8581;47.334;11.190;2022-10-31T02:02:31;5.33;;;1.83;;
16928;SDS011;8581;47.334;11.190;2022-10-31T02:05:04;5.80;;;2.33;;
16928;SDS011;8581;47.334;11.190;2022-10-31T02:07:38;9.47;;;2.10;;
16928;SDS011;8581;47.334;11.190;2022-10-31T02:10:08;4.00;;;2.13;;
16928;SDS011;8581;47.334;11.190;2022-10-31T02:12:39;8.60;;;2.30;;
16928;SDS011;8581;47.334;11.190;2022-10-31T02:15:11;6.10;;;2.17;;
16928;SDS011;8581;47.334;11.190;2022-10-31T02:17:43;5.57;;;2.33;;
16928;SDS011;8581;47.334;11.190;2022-10-31T02:20:15;6.23;;;2.00;;
16928;SDS011;8581;47.334;11.190;2022-10-31T02:25:30;7.27;;;2.60;;
16928;SDS011;8581;47.334;11.190;2022-10-31T02:28:19;4.40;;;1.97;;
16928;SDS011;8581;47.334;11.190;2022-10-31T02:31:09;7.13;;;2.40;;
16928;SDS011;8581;47.334;11.190;2022-10-31T02:33:53;5.30;;;1.70;;
16928;SDS011;8581;47.334;11.190;2022-10-31T02:36:27;7.10;;;2.43;;
16928;SDS011;8581;47.334;11.190;2022-10-31T02:39:02;4.07;;;2.20;;
16928;SDS011;8581;47.334;11.190;2022-10-31T02:41:51;9.27;;;2.30;;
16928;SDS011;8581;47.334;11.190;2022-10-31T02:44:23;5.53;;;2.30;;
16928;SDS011;8581;47.334;11.190;2022-10-31T02:46:57;6.23;;;2.27;;
16928;SDS011;8581;47.334;11.190;2022-10-31T02:49:31;7.00;;;2.33;;
16928;SDS011;8581;47.334;11.190;2022-10-31T02:52:12;5.40;;;2.07;;
16928;SDS011;8581;47.334;11.190;2022-10-31T02:54:35;10.03;;;2.50;;
16928;SDS011;8581;47.334;11.190;2022-10-31T02:57:06;4.83;;;2.37;;
16928;SDS011;8581;47.334;11.190;2022-10-31T02:59:39;8.33;;;2.10;;
16928;SDS011;8581;47.334;11.190;2022-10-31T03:02:15;6.67;;;2.20;;
16928;SDS011;8581;47.334;11.190;2022-10-31T03:04:56;5.17;;;1.87;;
16928;SDS011;8581;47.334;11.190;2022-10-31T03:07:37;6.17;;;2.20;;
16928;SDS011;8581;47.334;11.190;2022-10-31T03:10:55;8.47;;;2.60;;
16928;SDS011;8581;47.334;11.190;2022-10-31T03:13:21;5.50;;;2.30;;
16928;SDS011;8581;47.334;11.190;2022-10-31T03:16:09;5.50;;;2.60;;
16928;SDS011;8581;47.334;11.190;2022-10-31T03:18:42;4.57;;;2.20;;
16928;SDS011;8581;47.334;11.190;2022-10-31T03:21:13;7.10;;;2.40;;
16928;SDS011;8581;47.334;11.190;2022-10-31T03:23:44;10.90;;;2.97;;
16928;SDS011;8581;47.334;11.190;2022-10-31T03:26:16;4.77;;;2.47;;
16928;SDS011;8581;47.334;11.190;2022-10-31T03:28:51;6.20;;;2.40;;
16928;SDS011;8581;47.334;11.190;2022-10-31T03:31:23;5.30;;;2.23;;
16928;SDS011;8581;47.334;11.190;2022-10-31T03:33:52;4.03;;;2.43;;
16928;SDS011;8581;47.334;11.190;2022-10-31T03:36:24;5.43;;;2.43;;
16928;SDS011;8581;47.334;11.190;2022-10-31T03:38:56;6.43;;;2.23;;
16928;SDS011;8581;47.334;11.190;2022-10-31T03:41:28;4.30;;;1.80;;
16928;SDS011;8581;47.334;11.190;2022-10-31T03:44:00;8.80;;;2.30;;
16928;SDS011;8581;47.334;11.190;2022-10-31T03:46:30;6.07;;;2.20;;
16928;SDS011;8581;47.334;11.190;2022-10-31T03:49:02;9.23;;;2.63;;
16928;SDS011;8581;47.334;11.190;2022-10-31T03:51:45;6.33;;;2.40;;
16928;SDS011;8581;47.334;11.190;2022-10-31T03:54:23;7.00;;;2.20;;
16928;SDS011;8581;47.334;11.190;2022-10-31T03:56:56;4.50;;;2.13;;
16928;SDS011;8581;47.334;11.190;2022-10-31T03:59:34;7.03;;;2.17;;
16928;SDS011;8581;47.334;11.190;2022-10-31T04:02:06;5.60;;;2.23;;
16928;SDS011;8581;47.334;11.190;2022-10-31T04:04:37;4.20;;;2.10;;
16928;SDS011;8581;47.334;11.190;2022-10-31T04:07:08;8.70;;;2.40;;
16928;SDS011;8581;47.334;11.190;2022-10-31T04:09:41;3.40;;;2.10;;
16928;SDS011;8581;47.334;11.190;2022-10-31T04:12:12;4.27;;;2.57;;
16928;SDS011;8581;47.334;11.190;2022-10-31T04:14:43;6.63;;;2.43;;
16928;SDS011;8581;47.334;11.190;2022-10-31T04:17:16;6.50;;;2.20;;
16928;SDS011;8581;47.334;11.190;2022-10-31T04:19:46;10.10;;;2.53;;
16928;SDS011;8581;47.334;11.190;2022-10-31T04:22:18;6.80;;;2.50;;
16928;SDS011;8581;47.334;11.190;2022-10-31T04:24:50;6.53;;;2.50;;
16928;SDS011;8581;47.334;11.190;2022-10-31T04:27:21;9.43;;;2.50;;
16928;SDS011;8581;47.334;11.190;2022-10-31T04:29:53;6.60;;;2.57;;
16928;SDS011;8581;47.334;11.190;2022-10-31T04:32:24;8.90;;;2.60;;
16928;SDS011;8581;47.334;11.190;2022-10-31T04:34:56;6.87;;;2.70;;
16928;SDS011;8581;47.334;11.190;2022-10-31T04:37:27;7.17;;;2.60;;
16928;SDS011;8581;47.334;11.190;2022-10-31T04:39:59;7.40;;;2.97;;
16928;SDS011;8581;47.334;11.190;2022-10-31T04:42:31;9.00;;;2.33;;
16928;SDS011;8581;47.334;11.190;2022-10-31T04:45:02;7.67;;;2.40;;
16928;SDS011;8581;47.334;11.190;2022-10-31T04:47:34;7.13;;;2.83;;
16928;SDS011;8581;47.334;11.190;2022-10-31T04:50:06;10.97;;;3.30;;
16928;SDS011;8581;47.334;11.190;2022-10-31T04:52:39;13.37;;;2.93;;
16928;SDS011;8581;47.334;11.190;2022-10-31T04:55:10;6.70;;;2.27;;
16928;SDS011;8581;47.334;11.190;2022-10-31T04:57:42;6.73;;;2.47;;
16928;SDS011;8581;47.334;11.190;2022-10-31T05:00:14;7.07;;;2.80;;
16928;SDS011;8581;47.334;11.190;2022-10-31T05:02:47;6.20;;;2.80;;
16928;SDS011;8581;47.334;11.190;2022-10-31T05:05:20;11.47;;;2.80;;
16928;SDS011;8581;47.334;11.190;2022-10-31T05:07:50;7.57;;;2.33;;
16928;SDS011;8581;47.334;11.190;2022-10-31T05:10:23;5.93;;;2.37;;
16928;SDS011;8581;47.334;11.190;2022-10-31T05:12:55;6.17;;;2.57;;
16928;SDS011;8581;47.334;11.190;2022-10-31T05:15:27;4.83;;;2.33;;
16928;SDS011;8581;47.334;11.190;2022-10-31T05:17:57;5.77;;;2.50;;
16928;SDS011;8581;47.334;11.190;2022-10-31T05:20:29;8.33;;;2.90;;
16928;SDS011;8581;47.334;11.190;2022-10-31T05:23:01;7.57;;;3.33;;
16928;SDS011;8581;47.334;11.190;2022-10-31T05:25:32;9.13;;;2.40;;
16928;SDS011;8581;47.334;11.190;2022-10-31T05:28:04;4.37;;;2.43;;
16928;SDS011;8581;47.334;11.190;2022-10-31T05:30:35;4.83;;;2.60;;
16928;SDS011;8581;47.334;11.190;2022-10-31T05:33:07;9.40;;;5.70;;
16928;SDS011;8581;47.334;11.190;2022-10-31T05:35:38;10.60;;;3.13;;
16928;SDS011;8581;47.334;11.190;2022-10-31T05:38:10;7.57;;;3.20;;
16928;SDS011;8581;47.334;11.190;2022-10-31T05:40:42;9.43;;;3.07;;
16928;SDS011;8581;47.334;11.190;2022-10-31T05:43:13;10.83;;;2.40;;
16928;SDS011;8581;47.334;11.190;2022-10-31T05:45:45;6.80;;;2.93;;
16928;SDS011;8581;47.334;11.190;2022-10-31T05:48:16;7.10;;;3.30;;
16928;SDS011;8581;47.334;11.190;2022-10-31T05:50:48;9.87;;;2.97;;
16928;SDS011;8581;47.334;11.190;2022-10-31T05:53:19;9.23;;;3.40;;
16928;SDS011;8581;47.334;11.190;2022-10-31T05:55:51;8.03;;;3.13;;
16928;SDS011;8581;47.334;11.190;2022-10-31T05:58:23;4.53;;;2.70;;
16928;SDS011;8581;47.334;11.190;2022-10-31T06:00:54;5.10;;;2.53;;
16928;SDS011;8581;47.334;11.190;2022-10-31T06:03:26;5.73;;;2.47;;
16928;SDS011;8581;47.334;11.190;2022-10-31T06:05:57;7.70;;;3.27;;
16928;SDS011;8581;47.334;11.190;2022-10-31T06:08:29;9.77;;;3.50;;
16928;SDS011;8581;47.334;11.190;2022-10-31T06:11:01;7.83;;;3.10;;
16928;SDS011;8581;47.334;11.190;2022-10-31T06:13:32;9.47;;;3.10;;
16928;SDS011;8581;47.334;11.190;2022-10-31T06:16:04;5.53;;;2.90;;
16928;SDS011;8581;47.334;11.190;2022-10-31T06:18:36;9.00;;;2.93;;
16928;SDS011;8581;47.334;11.190;2022-10-31T06:21:07;9.00;;;3.13;;
16928;SDS011;8581;47.334;11.190;2022-10-31T06:23:39;10.07;;;3.10;;
16928;SDS011;8581;47.334;11.190;2022-10-31T06:26:10;18.17;;;5.77;;
16928;SDS011;8581;47.334;11.190;2022-10-31T06:28:42;39.10;;;23.13;;
16928;SDS011;8581;47.334;11.190;2022-10-31T06:31:13;28.00;;;15.27;;
16928;SDS011;8581;47.334;11.190;2022-10-31T06:33:45;19.70;;;10.87;;
16928;SDS011;8581;47.334;11.190;2022-10-31T06:36:17;9.73;;;5.27;;
16928;SDS011;8581;47.334;11.190;2022-10-31T06:38:48;9.83;;;5.30;;
16928;SDS011;8581;47.334;11.190;2022-10-31T06:41:20;10.53;;;4.67;;
16928;SDS011;8581;47.334;11.190;2022-10-31T06:43:51;10.43;;;4.30;;
16928;SDS011;8581;47.334;11.190;2022-10-31T06:46:23;23.63;;;9.00;;
16928;SDS011;8581;47.334;11.190;2022-10-31T06:48:54;16.17;;;8.20;;
16928;SDS011;8581;47.334;11.190;2022-10-31T06:51:26;14.43;;;7.30;;
16928;SDS011;8581;47.334;11.190;2022-10-31T06:53:58;13.53;;;7.17;;
16928;SDS011;8581;47.334;11.190;2022-10-31T06:56:29;26.77;;;15.77;;
16928;SDS011;8581;47.334;11.190;2022-10-31T06:59:01;20.27;;;11.40;;
16928;SDS011;8581;47.334;11.190;2022-10-31T07:01:33;17.03;;;10.17;;
16928;SDS011;8581;47.334;11.190;2022-10-31T07:04:04;8.10;;;5.40;;
16928;SDS011;8581;47.334;11.190;2022-10-31T07:06:36;14.57;;;5.47;;
16928;SDS011;8581;47.334;11.190;2022-10-31T07:09:07;12.37;;;5.33;;
16928;SDS011;8581;47.334;11.190;2022-10-31T07:11:39;11.50;;;6.20;;
16928;SDS011;8581;47.334;11.190;2022-10-31T07:14:10;10.67;;;4.60;;
16928;SDS011;8581;47.334;11.190;2022-10-31T07:16:42;10.43;;;4.47;;
16928;SDS011;8581;47.334;11.190;2022-10-31T07:19:14;5.83;;;3.30;;
16928;SDS011;8581;47.334;11.190;2022-10-31T07:21:45;9.63;;;3.97;;
16928;SDS011;8581;47.334;11.190;2022-10-31T07:24:17;18.93;;;5.57;;
16928;SDS011;8581;47.334;11.190;2022-10-31T07:26:49;9.40;;;4.70;;
16928;SDS011;8581;47.334;11.190;2022-10-31T07:29:20;9.93;;;4.07;;
16928;SDS011;8581;47.334;11.190;2022-10-31T07:31:52;15.97;;;4.37;;
16928;SDS011;8581;47.334;11.190;2022-10-31T07:34:23;11.03;;;3.50;;
16928;SDS011;8581;47.334;11.190;2022-10-31T07:36:55;8.43;;;3.27;;
16928;SDS011;8581;47.334;11.190;2022-10-31T07:39:26;9.93;;;3.37;;
16928;SDS011;8581;47.334;11.190;2022-10-31T07:41:58;5.70;;;2.63;;
16928;SDS011;8581;47.334;11.190;2022-10-31T07:44:29;7.20;;;2.83;;
16928;SDS011;8581;47.334;11.190;2022-10-31T07:47:01;7.67;;;2.53;;
16928;SDS011;8581;47.334;11.190;2022-10-31T07:49:33;10.17;;;3.03;;
16928;SDS011;8581;47.334;11.190;2022-10-31T07:52:04;9.07;;;3.20;;
16928;SDS011;8581;47.334;11.190;2022-10-31T07:54:36;13.13;;;3.00;;
16928;SDS011;8581;47.334;11.190;2022-10-31T07:57:07;6.30;;;2.63;;
16928;SDS011;8581;47.334;11.190;2022-10-31T07:59:39;8.60;;;2.53;;
16928;SDS011;8581;47.334;11.190;2022-10-31T08:02:11;8.53;;;2.63;;
16928;SDS011;8581;47.334;11.190;2022-10-31T08:04:42;5.13;;;2.37;;
16928;SDS011;8581;47.334;11.190;2022-10-31T08:07:14;9.80;;;2.93;;
16928;SDS011;8581;47.334;11.190;2022-10-31T08:09:45;7.37;;;2.40;;
16928;SDS011;8581;47.334;11.190;2022-10-31T08:12:17;10.73;;;2.37;;
16928;SDS011;8581;47.334;11.190;2022-10-31T08:14:49;12.40;;;2.60;;
16928;SDS011;8581;47.334;11.190;2022-10-31T08:17:20;6.83;;;2.60;;
16928;SDS011;8581;47.334;11.190;2022-10-31T08:19:52;7.47;;;2.50;;
16928;SDS011;8581;47.334;11.190;2022-10-31T08:22:23;4.87;;;1.83;;
16928;SDS011;8581;47.334;11.190;2022-10-31T08:24:55;7.87;;;2.30;;
16928;SDS011;8581;47.334;11.190;2022-10-31T08:27:26;7.93;;;2.27;;
16928;SDS011;8581;47.334;11.190;2022-10-31T08:29:58;4.47;;;2.57;;
16928;SDS011;8581;47.334;11.190;2022-10-31T08:32:30;13.57;;;4.20;;
16928;SDS011;8581;47.334;11.190;2022-10-31T08:35:01;7.57;;;2.27;;
16928;SDS011;8581;47.334;11.190;2022-10-31T08:37:33;9.40;;;2.20;;
16928;SDS011;8581;47.334;11.190;2022-10-31T08:40:05;6.13;;;1.83;;
16928;SDS011;8581;47.334;11.190;2022-10-31T08:42:37;9.67;;;2.60;;
16928;SDS011;8581;47.334;11.190;2022-10-31T08:45:09;9.53;;;2.37;;
16928;SDS011;8581;47.334;11.190;2022-10-31T08:47:40;6.33;;;1.93;;
16928;SDS011;8581;47.334;11.190;2022-10-31T08:50:12;4.83;;;2.10;;
16928;SDS011;8581;47.334;11.190;2022-10-31T08:52:44;7.50;;;2.10;;
16928;SDS011;8581;47.334;11.190;2022-10-31T08:55:15;7.30;;;1.90;;
16928;SDS011;8581;47.334;11.190;2022-10-31T08:57:47;8.13;;;2.63;;
16928;SDS011;8581;47.334;11.190;2022-10-31T09:00:18;8.73;;;2.30;;
16928;SDS011;8581;47.334;11.190;2022-10-31T09:02:55;3.97;;;1.60;;
16928;SDS011;8581;47.334;11.190;2022-10-31T09:05:26;7.57;;;2.50;;
16928;SDS011;8581;47.334;11.190;2022-10-31T09:07:58;9.00;;;2.20;;
16928;SDS011;8581;47.334;11.190;2022-10-31T09:10:30;11.70;;;2.17;;
16928;SDS011;8581;47.334;11.190;2022-10-31T09:13:03;11.00;;;2.20;;
16928;SDS011;8581;47.334;11.190;2022-10-31T09:15:33;8.73;;;1.80;;
16928;SDS011;8581;47.334;11.190;2022-10-31T09:18:05;6.33;;;2.13;;
16928;SDS011;8581;47.334;11.190;2022-10-31T09:20:37;9.63;;;2.80;;
16928;SDS011;8581;47.334;11.190;2022-10-31T09:23:09;11.47;;;2.40;;
16928;SDS011;8581;47.334;11.190;2022-10-31T09:25:46;9.78;;;2.27;;
16928;SDS011;8581;47.334;11.190;2022-10-31T09:28:18;12.68;;;2.20;;
16928;SDS011;8581;47.334;11.190;2022-10-31T09:30:49;6.07;;;1.90;;
16928;SDS011;8581;47.334;11.190;2022-10-31T09:33:21;4.95;;;1.60;;
16928;SDS011;8581;47.334;11.190;2022-10-31T09:35:52;8.07;;;1.80;;
16928;SDS011;8581;47.334;11.190;2022-10-31T09:38:24;8.05;;;2.15;;
16928;SDS011;8581;47.334;11.190;2022-10-31T09:41:01;5.30;;;1.85;;
16928;SDS011;8581;47.334;11.190;2022-10-31T09:46:35;5.17;;;1.87;;
16928;SDS011;8581;47.334;11.190;2022-10-31T09:49:23;6.62;;;1.95;;
16928;SDS011;8581;47.334;11.190;2022-10-31T09:52:12;7.80;;;2.02;;
16928;SDS011;8581;47.334;11.190;2022-10-31T09:54:52;5.47;;;2.20;;
16928;SDS011;8581;47.334;11.190;2022-10-31T09:57:24;7.00;;;2.30;;
16928;SDS011;8581;47.334;11.190;2022-10-31T09:59:54;10.82;;;1.90;;
16928;SDS011;8581;47.334;11.190;2022-10-31T10:02:27;7.30;;;1.67;;
16928;SDS011;8581;47.334;11.190;2022-10-31T10:04:59;3.83;;;1.90;;
16928;SDS011;8581;47.334;11.190;2022-10-31T10:07:35;10.10;;;2.25;;
16928;SDS011;8581;47.334;11.190;2022-10-31T10:10:23;3.50;;;1.77;;
16928;SDS011;8581;47.334;11.190;2022-10-31T10:12:58;6.97;;;2.00;;
16928;SDS011;8581;47.334;11.190;2022-10-31T10:15:38;6.62;;;1.80;;
16928;SDS011;8581;47.334;11.190;2022-10-31T10:18:15;4.80;;;2.00;;
16928;SDS011;8581;47.334;11.190;2022-10-31T10:20:54;5.67;;;1.70;;
16928;SDS011;8581;47.334;11.190;2022-10-31T10:23:41;7.15;;;1.80;;
16928;SDS011;8581;47.334;11.190;2022-10-31T10:26:15;8.58;;;2.05;;
16928;SDS011;8581;47.334;11.190;2022-10-31T10:28:49;14.80;;;2.90;;
16928;SDS011;8581;47.334;11.190;2022-10-31T10:31:22;7.45;;;1.75;;
16928;SDS011;8581;47.334;11.190;2022-10-31T10:34:27;6.47;;;1.67;;
16928;SDS011;8581;47.334;11.190;2022-10-31T10:36:43;6.53;;;1.80;;
16928;SDS011;8581;47.334;11.190;2022-10-31T10:42:17;7.85;;;1.80;;
16928;SDS011;8581;47.334;11.190;2022-10-31T10:44:54;6.97;;;1.95;;
16928;SDS011;8581;47.334;11.190;2022-10-31T10:47:36;9.70;;;1.90;;
16928;SDS011;8581;47.334;11.190;2022-10-31T10:50:10;9.10;;;2.00;;
16928;SDS011;8581;47.334;11.190;2022-10-31T10:52:50;5.78;;;1.52;;
16928;SDS011;8581;47.334;11.190;2022-10-31T10:55:38;8.70;;;2.10;;
16928;SDS011;8581;47.334;11.190;2022-10-31T10:58:23;7.25;;;2.10;;
16928;SDS011;8581;47.334;11.190;2022-10-31T11:01:08;5.62;;;1.98;;
16928;SDS011;8581;47.334;11.190;2022-10-31T11:03:34;5.75;;;2.08;;
16928;SDS011;8581;47.334;11.190;2022-10-31T11:06:15;7.60;;;2.00;;
16928;SDS011;8581;47.334;11.190;2022-10-31T11:08:37;6.22;;;2.02;;
16928;SDS011;8581;47.334;11.190;2022-10-31T11:11:24;8.53;;;1.98;;
16928;SDS011;8581;47.334;11.190;2022-10-31T11:14:03;8.98;;;1.98;;
16928;SDS011;8581;47.334;11.190;2022-10-31T11:16:44;6.70;;;1.67;;
16928;SDS011;8581;47.334;11.190;2022-10-31T11:19:19;7.15;;;1.98;;
16928;SDS011;8581;47.334;11.190;2022-10-31T11:21:50;8.23;;;2.30;;
16928;SDS011;8581;47.334;11.190;2022-10-31T11:24:22;10.20;;;2.10;;
16928;SDS011;8581;47.334;11.190;2022-10-31T11:27:05;6.05;;;1.92;;
16928;SDS011;8581;47.334;11.190;2022-10-31T11:29:24;6.42;;;2.40;;
16928;SDS011;8581;47.334;11.190;2022-10-31T11:31:56;6.00;;;2.15;;
16928;SDS011;8581;47.334;11.190;2022-10-31T11:34:32;7.95;;;1.90;;
16928;SDS011;8581;47.334;11.190;2022-10-31T11:37:08;5.80;;;2.05;;
16928;SDS011;8581;47.334;11.190;2022-10-31T11:39:53;4.80;;;1.80;;
16928;SDS011;8581;47.334;11.190;2022-10-31T11:42:37;6.60;;;2.02;;
16928;SDS011;8581;47.334;11.190;2022-10-31T11:51:34;8.80;;;1.95;;
16928;SDS011;8581;47.334;11.190;2022-10-31T11:54:15;8.78;;;2.17;;
16928;SDS011;8581;47.334;11.190;2022-10-31T11:56:54;4.78;;;1.87;;
16928;SDS011;8581;47.334;11.190;2022-10-31T11:59:53;5.05;;;1.57;;
16928;SDS011;8581;47.334;11.190;2022-10-31T12:02:24;6.53;;;2.08;;
16928;SDS011;8581;47.334;11.190;2022-10-31T12:04:59;5.12;;;1.87;;
16928;SDS011;8581;47.334;11.190;2022-10-31T12:07:34;6.60;;;2.00;;
16928;SDS011;8581;47.334;11.190;2022-10-31T12:10:10;3.25;;;1.70;;
16928;SDS011;8581;47.334;11.190;2022-10-31T12:12:49;9.73;;;1.70;;
16928;SDS011;8581;47.334;11.190;2022-10-31T12:15:29;5.03;;;1.90;;
16928;SDS011;8581;47.334;11.190;2022-10-31T12:23:52;8.93;;;1.95;;
16928;SDS011;8581;47.334;11.190;2022-10-31T12:26:25;11.22;;;2.00;;
16928;SDS011;8581;47.334;11.190;2022-10-31T12:29:00;6.62;;;1.70;;
16928;SDS011;8581;47.334;11.190;2022-10-31T12:31:41;6.85;;;1.87;;
16928;SDS011;8581;47.334;11.190;2022-10-31T12:34:17;7.65;;;1.95;;
16928;SDS011;8581;47.334;11.190;2022-10-31T12:39:39;5.85;;;1.90;;
16928;SDS011;8581;47.334;11.190;2022-10-31T12:44:57;5.42;;;1.92;;
16928;SDS011;8581;47.334;11.190;2022-10-31T12:48:53;5.20;;;1.82;;
16928;SDS011;8581;47.334;11.190;2022-10-31T12:50:53;7.45;;;2.17;;
16928;SDS011;8581;47.334;11.190;2022-10-31T12:53:45;8.85;;;2.05;;
16928;SDS011;8581;47.334;11.190;2022-10-31T12:56:38;8.95;;;2.40;;
16928;SDS011;8581;47.334;11.190;2022-10-31T12:59:17;7.60;;;2.12;;
16928;SDS011;8581;47.334;11.190;2022-10-31T13:01:51;2.98;;;1.60;;
16928;SDS011;8581;47.334;11.190;2022-10-31T13:07:15;6.17;;;2.00;;
16928;SDS011;8581;47.334;11.190;2022-10-31T13:09:53;5.83;;;1.98;;
16928;SDS011;8581;47.334;11.190;2022-10-31T13:12:24;6.53;;;1.80;;
16928;SDS011;8581;47.334;11.190;2022-10-31T13:15:05;5.55;;;1.90;;
16928;SDS011;8581;47.334;11.190;2022-10-31T13:17:39;6.90;;;1.80;;
16928;SDS011;8581;47.334;11.190;2022-10-31T13:20:21;6.08;;;1.70;;
16928;SDS011;8581;47.334;11.190;2022-10-31T13:22:58;5.03;;;1.85;;
16928;SDS011;8581;47.334;11.190;2022-10-31T13:25:28;6.58;;;1.80;;
16928;SDS011;8581;47.334;11.190;2022-10-31T13:28:01;8.05;;;1.90;;
16928;SDS011;8581;47.334;11.190;2022-10-31T13:30:33;4.33;;;1.90;;
16928;SDS011;8581;47.334;11.190;2022-10-31T13:33:07;3.72;;;1.70;;
16928;SDS011;8581;47.334;11.190;2022-10-31T13:35:47;9.28;;;2.33;;
16928;SDS011;8581;47.334;11.190;2022-10-31T13:38:50;7.28;;;1.67;;
16928;SDS011;8581;47.334;11.190;2022-10-31T13:41:12;6.30;;;1.98;;
16928;SDS011;8581;47.334;11.190;2022-10-31T13:44:08;6.62;;;2.10;;
16928;SDS011;8581;47.334;11.190;2022-10-31T13:46:50;8.13;;;1.90;;
16928;SDS011;8581;47.334;11.190;2022-10-31T13:49:24;6.22;;;2.00;;
16928;SDS011;8581;47.334;11.190;2022-10-31T13:54:45;6.55;;;1.80;;
16928;SDS011;8581;47.334;11.190;2022-10-31T13:57:19;5.10;;;1.45;;
16928;SDS011;8581;47.334;11.190;2022-10-31T13:59:51;4.70;;;1.67;;
16928;SDS011;8581;47.334;11.190;2022-10-31T14:02:25;8.05;;;2.20;;
16928;SDS011;8581;47.334;11.190;2022-10-31T14:05:06;4.35;;;1.50;;
16928;SDS011;8581;47.334;11.190;2022-10-31T14:07:41;3.72;;;1.60;;
16928;SDS011;8581;47.334;11.190;2022-10-31T14:12:51;5.15;;;1.35;;
16928;SDS011;8581;47.334;11.190;2022-10-31T14:15:24;6.72;;;1.95;;
16928;SDS011;8581;47.334;11.190;2022-10-31T14:17:59;4.25;;;1.47;;
16928;SDS011;8581;47.334;11.190;2022-10-31T14:20:36;7.00;;;1.87;;
16928;SDS011;8581;47.334;11.190;2022-10-31T14:25:51;6.33;;;1.70;;
16928;SDS011;8581;47.334;11.190;2022-10-31T14:31:02;9.65;;;1.90;;
16928;SDS011;8581;47.334;11.190;2022-10-31T14:33:33;4.30;;;1.42;;
16928;SDS011;8581;47.334;11.190;2022-10-31T14:36:08;6.12;;;1.62;;
16928;SDS011;8581;47.334;11.190;2022-10-31T14:38:42;5.37;;;1.67;;
16928;SDS011;8581;47.334;11.190;2022-10-31T14:41:24;8.05;;;2.05;;
16928;SDS011;8581;47.334;11.190;2022-10-31T14:46:38;8.60;;;1.60;;
16928;SDS011;8581;47.334;11.190;2022-10-31T14:49:15;4.17;;;1.62;;
16928;SDS011;8581;47.334;11.190;2022-10-31T14:52:05;4.90;;;1.60;;
16928;SDS011;8581;47.334;11.190;2022-10-31T14:54:38;8.03;;;1.80;;
16928;SDS011;8581;47.334;11.190;2022-10-31T14:57:15;7.47;;;2.17;;
16928;SDS011;8581;47.334;11.190;2022-10-31T15:00:02;10.63;;;1.80;;
16928;SDS011;8581;47.334;11.190;2022-10-31T15:02:34;5.07;;;1.77;;
16928;SDS011;8581;47.334;11.190;2022-10-31T15:05:08;8.08;;;2.15;;
16928;SDS011;8581;47.334;11.190;2022-10-31T15:10:24;6.72;;;1.70;;
16928;SDS011;8581;47.334;11.190;2022-10-31T15:12:54;4.40;;;1.57;;
16928;SDS011;8581;47.334;11.190;2022-10-31T15:15:26;7.12;;;1.62;;
16928;SDS011;8581;47.334;11.190;2022-10-31T15:17:58;4.22;;;1.60;;
16928;SDS011;8581;47.334;11.190;2022-10-31T15:20:31;2.30;;;1.30;;
16928;SDS011;8581;47.334;11.190;2022-10-31T15:23:01;9.65;;;1.70;;
16928;SDS011;8581;47.334;11.190;2022-10-31T15:25:33;5.03;;;1.80;;
16928;SDS011;8581;47.334;11.190;2022-10-31T15:28:12;4.92;;;1.77;;
16928;SDS011;8581;47.334;11.190;2022-10-31T15:30:36;5.45;;;1.47;;
16928;SDS011;8581;47.334;11.190;2022-10-31T15:38:24;5.67;;;1.20;;
16928;SDS011;8581;47.334;11.190;2022-10-31T15:40:57;4.75;;;1.52;;
16928;SDS011;8581;47.334;11.190;2022-10-31T15:43:29;5.12;;;1.50;;
16928;SDS011;8581;47.334;11.190;2022-10-31T15:46:00;4.50;;;1.50;;
16928;SDS011;8581;47.334;11.190;2022-10-31T15:48:32;6.47;;;2.30;;
16928;SDS011;8581;47.334;11.190;2022-10-31T15:51:03;7.33;;;1.77;;
16928;SDS011;8581;47.334;11.190;2022-10-31T15:53:36;7.40;;;2.93;;
16928;SDS011;8581;47.334;11.190;2022-10-31T15:56:07;6.93;;;2.30;;
16928;SDS011;8581;47.334;11.190;2022-10-31T15:58:43;6.07;;;2.73;;
16928;SDS011;8581;47.334;11.190;2022-10-31T16:01:23;14.90;;;11.20;;
16928;SDS011;8581;47.334;11.190;2022-10-31T16:04:18;8.13;;;3.37;;
16928;SDS011;8581;47.334;11.190;2022-10-31T16:06:41;8.83;;;4.20;;
16928;SDS011;8581;47.334;11.190;2022-10-31T16:11:53;8.80;;;3.90;;
16928;SDS011;8581;47.334;11.190;2022-10-31T16:14:26;5.23;;;3.00;;
16928;SDS011;8581;47.334;11.190;2022-10-31T16:16:57;114.03;;;9.77;;
16928;SDS011;8581;47.334;11.190;2022-10-31T16:19:30;8.73;;;2.90;;
16928;SDS011;8581;47.334;11.190;2022-10-31T16:22:02;9.87;;;2.80;;